sensor_id;sensor_type;location;lat;lon;timestamp;pressure;altitude;pressure_sealevel;temperature;humidity
85113;BME280;75461;51.556;9.946;2024-03-07T00:02:04;100746.59;;;3.21;87.73
85113;BME280;75461;51.556;9.946;2024-03-07T00:04:29;100747.56;;;3.17;88.87
85113;BME280;75461;51.556;9.946;2024-03-07T00:06:55;100744.25;;;3.12;88.00
85113;BME280;75461;51.556;9.946;2024-03-07T00:09:21;100745.97;;;3.12;88.53
85113;BME280;75461;51.556;9.946;2024-03-07T00:11:50;100748.63;;;3.10;87.72
85113;BME280;75461;51.556;9.946;2024-03-07T00:14:15;100756.59;;;3.02;87.63
85113;BME280;75461;51.556;9.946;2024-03-07T00:16:41;100749.03;;;2.93;87.93
85113;BME280;75461;51.556;9.946;2024-03-07T00:19:06;100747.31;;;2.94;88.84
85113;BME280;75461;51.556;9.946;2024-03-07T00:21:32;100746.50;;;2.92;87.48
85113;BME280;75461;51.556;9.946;2024-03-07T00:23:57;100743.06;;;2.91;87.67
85113;BME280;75461;51.556;9.946;2024-03-07T00:26:22;100733.03;;;2.77;88.20
85113;BME280;75461;51.556;9.946;2024-03-07T00:28:48;100736.53;;;2.76;88.33
85113;BME280;75461;51.556;9.946;2024-03-07T00:31:13;100736.72;;;2.69;88.11
85113;BME280;75461;51.556;9.946;2024-03-07T00:33:39;100729.94;;;2.63;88.82
85113;BME280;75461;51.556;9.946;2024-03-07T00:36:04;100730.69;;;2.68;89.38
85113;BME280;75461;51.556;9.946;2024-03-07T00:38:31;100732.47;;;2.66;89.38
85113;BME280;75461;51.556;9.946;2024-03-07T00:40:56;100724.91;;;2.57;89.64
85113;BME280;75461;51.556;9.946;2024-03-07T00:43:21;100729.34;;;2.52;88.63
85113;BME280;75461;51.556;9.946;2024-03-07T00:45:47;100714.84;;;2.45;88.96
85113;BME280;75461;51.556;9.946;2024-03-07T00:48:15;100722.81;;;2.37;90.56
85113;BME280;75461;51.556;9.946;2024-03-07T00:50:42;100718.03;;;2.20;90.86
85113;BME280;75461;51.556;9.946;2024-03-07T00:53:08;100723.16;;;2.22;90.47
85113;BME280;75461;51.556;9.946;2024-03-07T00:55:34;100722.72;;;2.04;90.45
85113;BME280;75461;51.556;9.946;2024-03-07T00:58:00;100730.50;;;2.03;90.75
85113;BME280;75461;51.556;9.946;2024-03-07T01:00:25;100720.22;;;2.00;90.81
85113;BME280;75461;51.556;9.946;2024-03-07T01:02:50;100716.81;;;1.98;91.44
85113;BME280;75461;51.556;9.946;2024-03-07T01:05:18;100716.72;;;2.02;90.55
85113;BME280;75461;51.556;9.946;2024-03-07T01:07:45;100718.50;;;2.00;91.77
85113;BME280;75461;51.556;9.946;2024-03-07T01:10:13;100713.59;;;1.88;93.49
85113;BME280;75461;51.556;9.946;2024-03-07T01:12:39;100708.47;;;1.85;94.60
85113;BME280;75461;51.556;9.946;2024-03-07T01:15:05;100712.69;;;1.91;94.01
85113;BME280;75461;51.556;9.946;2024-03-07T01:17:31;100714.38;;;1.92;93.34
85113;BME280;75461;51.556;9.946;2024-03-07T01:19:57;100711.66;;;1.98;93.50
85113;BME280;75461;51.556;9.946;2024-03-07T01:22:24;100715.16;;;1.94;91.85
85113;BME280;75461;51.556;9.946;2024-03-07T01:24:50;100704.41;;;1.73;92.37
85113;BME280;75461;51.556;9.946;2024-03-07T01:27:16;100711.22;;;1.77;92.49
85113;BME280;75461;51.556;9.946;2024-03-07T01:29:41;100707.66;;;1.83;93.18
85113;BME280;75461;51.556;9.946;2024-03-07T01:32:10;100712.75;;;1.88;93.77
85113;BME280;75461;51.556;9.946;2024-03-07T01:34:35;100709.28;;;1.87;94.06
85113;BME280;75461;51.556;9.946;2024-03-07T01:37:01;100710.00;;;1.94;93.83
85113;BME280;75461;51.556;9.946;2024-03-07T01:39:27;100705.00;;;1.86;96.58
85113;BME280;75461;51.556;9.946;2024-03-07T01:41:52;100706.59;;;1.92;96.38
85113;BME280;75461;51.556;9.946;2024-03-07T01:44:18;100699.50;;;2.01;96.92
85113;BME280;75461;51.556;9.946;2024-03-07T01:46:43;100696.78;;;2.06;95.00
85113;BME280;75461;51.556;9.946;2024-03-07T01:49:09;100694.91;;;2.13;94.80
85113;BME280;75461;51.556;9.946;2024-03-07T01:51:36;100693.06;;;2.18;94.29
85113;BME280;75461;51.556;9.946;2024-03-07T01:54:02;100701.47;;;2.27;93.69
85113;BME280;75461;51.556;9.946;2024-03-07T01:56:28;100703.44;;;2.18;92.83
85113;BME280;75461;51.556;9.946;2024-03-07T01:58:55;100704.91;;;2.28;94.09
85113;BME280;75461;51.556;9.946;2024-03-07T02:01:22;100696.03;;;2.38;94.74
85113;BME280;75461;51.556;9.946;2024-03-07T02:03:48;100689.34;;;2.29;93.90
85113;BME280;75461;51.556;9.946;2024-03-07T02:06:13;100695.41;;;2.28;94.18
85113;BME280;75461;51.556;9.946;2024-03-07T02:08:39;100688.25;;;2.38;94.90
85113;BME280;75461;51.556;9.946;2024-03-07T02:11:04;100693.38;;;2.41;94.94
85113;BME280;75461;51.556;9.946;2024-03-07T02:13:30;100688.03;;;2.47;94.96
85113;BME280;75461;51.556;9.946;2024-03-07T02:15:57;100682.09;;;2.44;96.17
85113;BME280;75461;51.556;9.946;2024-03-07T02:18:23;100685.25;;;2.55;96.35
85113;BME280;75461;51.556;9.946;2024-03-07T02:20:49;100678.44;;;2.52;95.31
85113;BME280;75461;51.556;9.946;2024-03-07T02:23:14;100684.41;;;2.54;95.61
85113;BME280;75461;51.556;9.946;2024-03-07T02:25:40;100668.69;;;2.61;94.65
85113;BME280;75461;51.556;9.946;2024-03-07T02:28:06;100677.16;;;2.67;94.75
85113;BME280;75461;51.556;9.946;2024-03-07T02:30:32;100676.22;;;2.71;94.54
85113;BME280;75461;51.556;9.946;2024-03-07T02:32:59;100672.72;;;2.72;95.01
85113;BME280;75461;51.556;9.946;2024-03-07T02:35:35;100670.13;;;2.72;93.75
85113;BME280;75461;51.556;9.946;2024-03-07T02:38:04;100663.88;;;2.81;93.59
85113;BME280;75461;51.556;9.946;2024-03-07T02:40:30;100665.31;;;2.91;92.41
85113;BME280;75461;51.556;9.946;2024-03-07T02:42:55;100663.56;;;2.92;91.35
85113;BME280;75461;51.556;9.946;2024-03-07T02:45:21;100655.19;;;2.82;94.90
85113;BME280;75461;51.556;9.946;2024-03-07T02:47:46;100654.13;;;2.56;96.73
85113;BME280;75461;51.556;9.946;2024-03-07T02:50:12;100659.09;;;2.64;97.21
85113;BME280;75461;51.556;9.946;2024-03-07T02:52:37;100662.28;;;2.75;96.62
85113;BME280;75461;51.556;9.946;2024-03-07T02:55:04;100651.72;;;2.83;95.91
85113;BME280;75461;51.556;9.946;2024-03-07T02:57:31;100649.69;;;2.94;94.72
85113;BME280;75461;51.556;9.946;2024-03-07T02:59:56;100654.91;;;2.93;95.54
85113;BME280;75461;51.556;9.946;2024-03-07T03:02:22;100657.19;;;3.03;95.53
85113;BME280;75461;51.556;9.946;2024-03-07T03:04:47;100653.47;;;3.14;94.72
85113;BME280;75461;51.556;9.946;2024-03-07T03:07:13;100646.28;;;3.23;93.46
85113;BME280;75461;51.556;9.946;2024-03-07T03:09:39;100644.22;;;3.35;93.89
85113;BME280;75461;51.556;9.946;2024-03-07T03:12:09;100643.91;;;3.45;93.11
85113;BME280;75461;51.556;9.946;2024-03-07T03:14:34;100637.00;;;3.46;92.78
85113;BME280;75461;51.556;9.946;2024-03-07T03:17:00;100635.25;;;3.45;92.01
85113;BME280;75461;51.556;9.946;2024-03-07T03:19:25;100629.97;;;3.49;91.55
85113;BME280;75461;51.556;9.946;2024-03-07T03:21:52;100634.97;;;3.56;93.25
85113;BME280;75461;51.556;9.946;2024-03-07T03:24:17;100652.66;;;3.41;93.55
85113;BME280;75461;51.556;9.946;2024-03-07T03:26:43;100646.31;;;3.22;93.29
85113;BME280;75461;51.556;9.946;2024-03-07T03:29:08;100646.47;;;3.17;93.58
85113;BME280;75461;51.556;9.946;2024-03-07T03:31:35;100642.88;;;3.21;94.55
85113;BME280;75461;51.556;9.946;2024-03-07T03:34:00;100645.16;;;3.32;95.02
85113;BME280;75461;51.556;9.946;2024-03-07T03:36:26;100634.56;;;3.40;94.77
85113;BME280;75461;51.556;9.946;2024-03-07T03:38:52;100635.25;;;3.46;94.99
85113;BME280;75461;51.556;9.946;2024-03-07T03:41:17;100633.81;;;3.36;96.39
85113;BME280;75461;51.556;9.946;2024-03-07T03:43:43;100631.00;;;3.42;95.47
85113;BME280;75461;51.556;9.946;2024-03-07T03:46:10;100625.53;;;3.53;94.57
85113;BME280;75461;51.556;9.946;2024-03-07T03:48:37;100620.53;;;3.45;95.86
85113;BME280;75461;51.556;9.946;2024-03-07T03:51:03;100627.97;;;3.58;94.70
85113;BME280;75461;51.556;9.946;2024-03-07T03:53:28;100622.28;;;3.46;97.82
85113;BME280;75461;51.556;9.946;2024-03-07T03:55:54;100627.19;;;3.56;97.29
85113;BME280;75461;51.556;9.946;2024-03-07T03:58:19;100624.19;;;3.68;94.42
85113;BME280;75461;51.556;9.946;2024-03-07T04:00:45;100624.06;;;3.72;94.63
85113;BME280;75461;51.556;9.946;2024-03-07T04:03:10;100615.25;;;3.78;92.37
85113;BME280;75461;51.556;9.946;2024-03-07T04:05:36;100619.91;;;3.67;94.16
85113;BME280;75461;51.556;9.946;2024-03-07T04:08:01;100616.47;;;3.66;94.61
85113;BME280;75461;51.556;9.946;2024-03-07T04:10:27;100611.19;;;3.69;94.73
85113;BME280;75461;51.556;9.946;2024-03-07T04:12:52;100617.84;;;3.78;94.97
85113;BME280;75461;51.556;9.946;2024-03-07T04:15:18;100608.06;;;3.86;93.69
85113;BME280;75461;51.556;9.946;2024-03-07T04:17:43;100609.16;;;3.79;94.84
85113;BME280;75461;51.556;9.946;2024-03-07T04:20:11;100612.84;;;3.72;93.91
85113;BME280;75461;51.556;9.946;2024-03-07T04:22:38;100614.69;;;3.68;93.55
85113;BME280;75461;51.556;9.946;2024-03-07T04:25:04;100614.34;;;3.79;92.99
85113;BME280;75461;51.556;9.946;2024-03-07T04:27:32;100618.41;;;3.88;93.51
85113;BME280;75461;51.556;9.946;2024-03-07T04:29:58;100608.78;;;3.91;95.25
85113;BME280;75461;51.556;9.946;2024-03-07T04:32:23;100611.22;;;3.96;95.46
85113;BME280;75461;51.556;9.946;2024-03-07T04:34:48;100620.34;;;4.08;92.86
85113;BME280;75461;51.556;9.946;2024-03-07T04:37:14;100610.72;;;4.11;92.38
85113;BME280;75461;51.556;9.946;2024-03-07T04:39:40;100608.22;;;4.08;93.99
85113;BME280;75461;51.556;9.946;2024-03-07T04:42:07;100614.34;;;4.06;93.38
85113;BME280;75461;51.556;9.946;2024-03-07T04:44:34;100607.56;;;4.02;93.44
85113;BME280;75461;51.556;9.946;2024-03-07T04:47:02;100618.16;;;3.95;94.37
85113;BME280;75461;51.556;9.946;2024-03-07T04:49:28;100607.13;;;3.89;95.05
85113;BME280;75461;51.556;9.946;2024-03-07T04:51:56;100612.34;;;3.87;94.40
85113;BME280;75461;51.556;9.946;2024-03-07T04:54:23;100605.44;;;3.88;93.09
85113;BME280;75461;51.556;9.946;2024-03-07T04:56:49;100611.56;;;3.85;93.97
85113;BME280;75461;51.556;9.946;2024-03-07T04:59:16;100609.75;;;3.87;93.69
85113;BME280;75461;51.556;9.946;2024-03-07T05:01:42;100624.44;;;3.88;94.45
85113;BME280;75461;51.556;9.946;2024-03-07T05:04:07;100615.00;;;3.86;94.06
85113;BME280;75461;51.556;9.946;2024-03-07T05:06:33;100625.31;;;3.87;95.38
85113;BME280;75461;51.556;9.946;2024-03-07T05:09:02;100629.72;;;3.85;93.80
85113;BME280;75461;51.556;9.946;2024-03-07T05:11:31;100623.53;;;3.89;93.28
85113;BME280;75461;51.556;9.946;2024-03-07T05:13:57;100620.75;;;3.95;94.46
85113;BME280;75461;51.556;9.946;2024-03-07T05:16:24;100630.88;;;4.03;92.73
85113;BME280;75461;51.556;9.946;2024-03-07T05:18:50;100617.34;;;3.93;93.66
85113;BME280;75461;51.556;9.946;2024-03-07T05:21:16;100624.28;;;3.93;93.23
85113;BME280;75461;51.556;9.946;2024-03-07T05:24:00;100615.81;;;3.88;93.27
85113;BME280;75461;51.556;9.946;2024-03-07T05:26:27;100611.28;;;3.94;93.85
85113;BME280;75461;51.556;9.946;2024-03-07T05:28:52;100620.75;;;3.95;95.26
85113;BME280;75461;51.556;9.946;2024-03-07T05:31:20;100619.84;;;3.96;95.81
85113;BME280;75461;51.556;9.946;2024-03-07T05:33:47;100619.72;;;4.01;96.41
85113;BME280;75461;51.556;9.946;2024-03-07T05:36:12;100623.25;;;3.98;95.10
85113;BME280;75461;51.556;9.946;2024-03-07T05:38:41;100614.72;;;3.95;94.24
85113;BME280;75461;51.556;9.946;2024-03-07T05:41:09;100616.56;;;3.91;92.92
85113;BME280;75461;51.556;9.946;2024-03-07T05:43:36;100617.59;;;3.86;93.06
85113;BME280;75461;51.556;9.946;2024-03-07T05:46:01;100628.97;;;3.82;93.26
85113;BME280;75461;51.556;9.946;2024-03-07T05:48:27;100628.06;;;3.83;94.09
85113;BME280;75461;51.556;9.946;2024-03-07T05:50:52;100621.97;;;3.84;92.96
85113;BME280;75461;51.556;9.946;2024-03-07T05:53:18;100625.47;;;3.83;94.12
85113;BME280;75461;51.556;9.946;2024-03-07T05:55:43;100629.72;;;3.85;93.42
85113;BME280;75461;51.556;9.946;2024-03-07T05:58:09;100625.47;;;3.83;94.78
85113;BME280;75461;51.556;9.946;2024-03-07T06:00:35;100630.75;;;3.80;94.60
85113;BME280;75461;51.556;9.946;2024-03-07T06:03:04;100629.91;;;3.79;94.29
85113;BME280;75461;51.556;9.946;2024-03-07T06:05:30;100631.56;;;3.82;94.76
85113;BME280;75461;51.556;9.946;2024-03-07T06:07:55;100636.66;;;3.85;94.36
85113;BME280;75461;51.556;9.946;2024-03-07T06:10:22;100631.16;;;3.94;94.17
85113;BME280;75461;51.556;9.946;2024-03-07T06:12:51;100628.69;;;3.91;93.35
85113;BME280;75461;51.556;9.946;2024-03-07T06:15:17;100640.78;;;3.90;94.76
85113;BME280;75461;51.556;9.946;2024-03-07T06:17:42;100632.97;;;3.92;94.11
85113;BME280;75461;51.556;9.946;2024-03-07T06:20:12;100634.44;;;4.01;93.56
85113;BME280;75461;51.556;9.946;2024-03-07T06:22:51;100632.78;;;3.98;95.36
85113;BME280;75461;51.556;9.946;2024-03-07T06:25:20;100635.22;;;4.03;95.87
85113;BME280;75461;51.556;9.946;2024-03-07T06:27:58;100642.53;;;3.91;94.38
85113;BME280;75461;51.556;9.946;2024-03-07T06:30:24;100636.50;;;3.89;95.15
85113;BME280;75461;51.556;9.946;2024-03-07T06:32:51;100646.31;;;3.81;96.00
85113;BME280;75461;51.556;9.946;2024-03-07T06:35:16;100647.94;;;3.84;95.44
85113;BME280;75461;51.556;9.946;2024-03-07T06:37:44;100650.50;;;3.85;95.42
85113;BME280;75461;51.556;9.946;2024-03-07T06:40:10;100651.34;;;3.86;96.03
85113;BME280;75461;51.556;9.946;2024-03-07T06:42:35;100650.41;;;3.88;95.37
85113;BME280;75461;51.556;9.946;2024-03-07T06:45:03;100653.59;;;3.96;96.18
85113;BME280;75461;51.556;9.946;2024-03-07T06:47:29;100643.41;;;3.90;95.01
85113;BME280;75461;51.556;9.946;2024-03-07T06:49:54;100656.38;;;3.90;95.74
85113;BME280;75461;51.556;9.946;2024-03-07T06:52:21;100650.16;;;3.96;96.26
85113;BME280;75461;51.556;9.946;2024-03-07T06:54:47;100646.53;;;4.02;96.29
85113;BME280;75461;51.556;9.946;2024-03-07T06:57:12;100652.91;;;3.91;96.50
85113;BME280;75461;51.556;9.946;2024-03-07T06:59:38;100650.13;;;3.97;96.16
85113;BME280;75461;51.556;9.946;2024-03-07T07:02:04;100642.72;;;3.85;95.89
85113;BME280;75461;51.556;9.946;2024-03-07T07:04:29;100648.66;;;3.89;97.37
85113;BME280;75461;51.556;9.946;2024-03-07T07:07:09;100652.91;;;3.91;97.42
85113;BME280;75461;51.556;9.946;2024-03-07T07:09:37;100637.22;;;3.94;96.36
85113;BME280;75461;51.556;9.946;2024-03-07T07:12:02;100646.00;;;3.90;96.35
85113;BME280;75461;51.556;9.946;2024-03-07T07:14:29;100646.63;;;3.98;96.55
85113;BME280;75461;51.556;9.946;2024-03-07T07:16:54;100650.22;;;3.94;97.03
85113;BME280;75461;51.556;9.946;2024-03-07T07:19:21;100649.13;;;4.02;96.75
85113;BME280;75461;51.556;9.946;2024-03-07T07:21:46;100651.72;;;4.02;96.76
85113;BME280;75461;51.556;9.946;2024-03-07T07:24:12;100649.13;;;4.02;97.28
85113;BME280;75461;51.556;9.946;2024-03-07T07:26:38;100652.75;;;3.96;97.07
85113;BME280;75461;51.556;9.946;2024-03-07T07:29:04;100654.53;;;3.94;97.49
85113;BME280;75461;51.556;9.946;2024-03-07T07:31:30;100649.59;;;3.86;97.88
85113;BME280;75461;51.556;9.946;2024-03-07T07:33:57;100650.44;;;3.87;97.36
85113;BME280;75461;51.556;9.946;2024-03-07T07:36:23;100644.03;;;3.98;97.62
85113;BME280;75461;51.556;9.946;2024-03-07T07:38:48;100642.44;;;3.94;97.99
85113;BME280;75461;51.556;9.946;2024-03-07T07:41:13;100638.56;;;4.06;97.13
85113;BME280;75461;51.556;9.946;2024-03-07T07:43:40;100635.78;;;4.12;96.99
85113;BME280;75461;51.556;9.946;2024-03-07T07:46:06;100640.06;;;4.13;97.99
85113;BME280;75461;51.556;9.946;2024-03-07T07:48:31;100635.84;;;4.11;98.07
85113;BME280;75461;51.556;9.946;2024-03-07T07:50:57;100635.66;;;4.17;97.90
85113;BME280;75461;51.556;9.946;2024-03-07T07:53:24;100633.59;;;4.27;97.13
85113;BME280;75461;51.556;9.946;2024-03-07T07:55:50;100635.03;;;4.35;96.37
85113;BME280;75461;51.556;9.946;2024-03-07T07:58:16;100632.09;;;4.46;97.10
85113;BME280;75461;51.556;9.946;2024-03-07T08:00:42;100636.06;;;4.56;95.40
85113;BME280;75461;51.556;9.946;2024-03-07T08:03:09;100634.03;;;4.64;94.97
85113;BME280;75461;51.556;9.946;2024-03-07T08:05:37;100638.53;;;4.84;95.51
85113;BME280;75461;51.556;9.946;2024-03-07T08:08:04;100638.53;;;4.84;95.36
85113;BME280;75461;51.556;9.946;2024-03-07T08:10:32;100627.59;;;5.00;95.94
85113;BME280;75461;51.556;9.946;2024-03-07T08:12:58;100624.03;;;5.02;95.70
85113;BME280;75461;51.556;9.946;2024-03-07T08:15:28;100627.78;;;5.19;94.27
85113;BME280;75461;51.556;9.946;2024-03-07T08:17:54;100628.16;;;5.31;96.66
85113;BME280;75461;51.556;9.946;2024-03-07T08:20:23;100633.75;;;5.44;96.39
85113;BME280;75461;51.556;9.946;2024-03-07T08:22:51;100627.53;;;5.48;97.62
85113;BME280;75461;51.556;9.946;2024-03-07T08:25:18;100632.28;;;5.60;96.78
85113;BME280;75461;51.556;9.946;2024-03-07T08:27:47;100633.25;;;5.80;96.34
85113;BME280;75461;51.556;9.946;2024-03-07T08:30:13;100637.19;;;5.90;95.48
85113;BME280;75461;51.556;9.946;2024-03-07T08:32:47;100639.75;;;5.92;96.07
85113;BME280;75461;51.556;9.946;2024-03-07T08:35:13;100630.69;;;6.02;97.00
85113;BME280;75461;51.556;9.946;2024-03-07T08:37:39;100629.50;;;6.09;94.40
85113;BME280;75461;51.556;9.946;2024-03-07T08:40:06;100621.66;;;6.11;95.00
85113;BME280;75461;51.556;9.946;2024-03-07T08:42:36;100634.94;;;6.25;95.23
85113;BME280;75461;51.556;9.946;2024-03-07T08:45:03;100632.09;;;6.31;95.62
85113;BME280;75461;51.556;9.946;2024-03-07T08:47:34;100622.13;;;6.61;96.53
85113;BME280;75461;51.556;9.946;2024-03-07T08:50:00;100616.41;;;6.73;92.59
85113;BME280;75461;51.556;9.946;2024-03-07T08:52:26;100625.59;;;6.82;91.67
85113;BME280;75461;51.556;9.946;2024-03-07T08:54:51;100611.72;;;6.82;93.58
85113;BME280;75461;51.556;9.946;2024-03-07T08:57:17;100607.59;;;6.76;91.22
85113;BME280;75461;51.556;9.946;2024-03-07T08:59:43;100608.22;;;6.81;90.78
85113;BME280;75461;51.556;9.946;2024-03-07T09:02:09;100607.50;;;6.98;90.42
85113;BME280;75461;51.556;9.946;2024-03-07T09:04:35;100606.88;;;7.12;90.90
85113;BME280;75461;51.556;9.946;2024-03-07T09:07:01;100607.19;;;7.24;89.17
85113;BME280;75461;51.556;9.946;2024-03-07T09:09:26;100610.97;;;7.17;89.14
85113;BME280;75461;51.556;9.946;2024-03-07T09:11:52;100606.63;;;7.37;87.45
85113;BME280;75461;51.556;9.946;2024-03-07T09:14:17;100617.41;;;7.48;87.87
85113;BME280;75461;51.556;9.946;2024-03-07T09:16:43;100613.28;;;7.61;86.00
85113;BME280;75461;51.556;9.946;2024-03-07T09:19:09;100601.34;;;7.75;85.96
85113;BME280;75461;51.556;9.946;2024-03-07T09:21:40;100600.22;;;7.80;84.91
85113;BME280;75461;51.556;9.946;2024-03-07T09:24:06;100604.00;;;7.92;84.43
85113;BME280;75461;51.556;9.946;2024-03-07T09:26:33;100603.47;;;7.85;82.75
85113;BME280;75461;51.556;9.946;2024-03-07T09:28:58;100608.97;;;7.79;83.97
85113;BME280;75461;51.556;9.946;2024-03-07T09:31:26;100600.75;;;7.87;82.96
85113;BME280;75461;51.556;9.946;2024-03-07T09:33:51;100604.16;;;7.89;83.07
85113;BME280;75461;51.556;9.946;2024-03-07T09:36:19;100602.56;;;7.48;85.12
85113;BME280;75461;51.556;9.946;2024-03-07T09:38:44;100601.25;;;7.40;85.46
85113;BME280;75461;51.556;9.946;2024-03-07T09:41:10;100599.69;;;7.36;87.45
85113;BME280;75461;51.556;9.946;2024-03-07T09:43:36;100610.13;;;7.36;87.07
85113;BME280;75461;51.556;9.946;2024-03-07T09:46:05;100601.69;;;7.50;86.20
85113;BME280;75461;51.556;9.946;2024-03-07T09:48:30;100601.13;;;7.43;85.95
85113;BME280;75461;51.556;9.946;2024-03-07T09:50:57;100602.94;;;7.60;88.03
85113;BME280;75461;51.556;9.946;2024-03-07T09:53:25;100603.91;;;7.38;88.16
85113;BME280;75461;51.556;9.946;2024-03-07T09:55:52;100598.19;;;7.49;86.50
85113;BME280;75461;51.556;9.946;2024-03-07T09:58:19;100592.53;;;7.58;85.94
85113;BME280;75461;51.556;9.946;2024-03-07T10:00:46;100597.16;;;7.53;81.68
85113;BME280;75461;51.556;9.946;2024-03-07T10:03:17;100597.28;;;7.50;82.18
85113;BME280;75461;51.556;9.946;2024-03-07T10:05:45;100604.84;;;7.37;87.27
85113;BME280;75461;51.556;9.946;2024-03-07T10:08:11;100599.69;;;7.36;86.14
85113;BME280;75461;51.556;9.946;2024-03-07T10:10:37;100596.78;;;7.23;86.80
85113;BME280;75461;51.556;9.946;2024-03-07T10:13:03;100596.47;;;7.31;83.67
85113;BME280;75461;51.556;9.946;2024-03-07T10:15:32;100590.16;;;7.35;84.07
85113;BME280;75461;51.556;9.946;2024-03-07T10:17:59;100601.09;;;7.24;81.11
85113;BME280;75461;51.556;9.946;2024-03-07T10:20:25;100603.31;;;6.94;81.93
85113;BME280;75461;51.556;9.946;2024-03-07T10:22:50;100591.78;;;7.18;83.92
85113;BME280;75461;51.556;9.946;2024-03-07T10:25:20;100590.72;;;7.41;79.30
85113;BME280;75461;51.556;9.946;2024-03-07T10:27:51;100585.94;;;7.51;82.04
85113;BME280;75461;51.556;9.946;2024-03-07T10:30:19;100580.38;;;7.76;82.07
85113;BME280;75461;51.556;9.946;2024-03-07T10:32:51;100581.19;;;7.95;82.67
85113;BME280;75461;51.556;9.946;2024-03-07T10:35:22;100580.72;;;8.22;79.92
85113;BME280;75461;51.556;9.946;2024-03-07T10:37:52;100576.25;;;8.43;77.39
85113;BME280;75461;51.556;9.946;2024-03-07T10:40:19;100575.75;;;8.52;77.35
85113;BME280;75461;51.556;9.946;2024-03-07T10:42:46;100575.78;;;8.85;75.82
85113;BME280;75461;51.556;9.946;2024-03-07T10:45:18;100574.06;;;8.84;75.80
85113;BME280;75461;51.556;9.946;2024-03-07T10:47:47;100577.06;;;9.10;74.18
85113;BME280;75461;51.556;9.946;2024-03-07T10:53:09;100570.50;;;9.34;69.36
85113;BME280;75461;51.556;9.946;2024-03-07T10:59:16;100560.78;;;8.72;62.74
85113;BME280;75461;51.556;9.946;2024-03-07T11:04:33;100574.69;;;8.56;65.14
85113;BME280;75461;51.556;9.946;2024-03-07T11:07:00;100566.34;;;8.65;63.32
85113;BME280;75461;51.556;9.946;2024-03-07T11:09:25;100569.25;;;8.77;62.48
85113;BME280;75461;51.556;9.946;2024-03-07T11:11:59;100570.13;;;8.60;61.96
85113;BME280;75461;51.556;9.946;2024-03-07T11:14:26;100564.84;;;8.44;63.58
85113;BME280;75461;51.556;9.946;2024-03-07T11:16:53;100556.84;;;8.47;66.11
85113;BME280;75461;51.556;9.946;2024-03-07T11:21:45;100548.84;;;8.15;59.98
85113;BME280;75461;51.556;9.946;2024-03-07T11:24:22;100550.00;;;8.27;62.39
85113;BME280;75461;51.556;9.946;2024-03-07T11:26:48;100548.59;;;8.20;61.57
85113;BME280;75461;51.556;9.946;2024-03-07T11:29:48;100558.06;;;8.23;63.27
85113;BME280;75461;51.556;9.946;2024-03-07T11:32:18;100546.31;;;8.14;64.99
85113;BME280;75461;51.556;9.946;2024-03-07T11:34:46;100549.91;;;7.94;64.12
85113;BME280;75461;51.556;9.946;2024-03-07T11:37:37;100547.31;;;8.11;63.52
85113;BME280;75461;51.556;9.946;2024-03-07T11:40:06;100547.13;;;7.97;62.62
85113;BME280;75461;51.556;9.946;2024-03-07T11:42:33;100539.06;;;8.19;66.95
85113;BME280;75461;51.556;9.946;2024-03-07T11:45:01;100536.19;;;8.58;67.56
85113;BME280;75461;51.556;9.946;2024-03-07T11:47:37;100538.28;;;8.69;63.20
85113;BME280;75461;51.556;9.946;2024-03-07T11:50:04;100532.28;;;8.67;64.74
85113;BME280;75461;51.556;9.946;2024-03-07T11:52:34;100536.50;;;8.70;61.12
85113;BME280;75461;51.556;9.946;2024-03-07T11:55:02;100533.28;;;8.64;60.63
85113;BME280;75461;51.556;9.946;2024-03-07T11:57:31;100524.94;;;8.74;63.14
85113;BME280;75461;51.556;9.946;2024-03-07T11:59:59;100521.09;;;9.28;64.66
85113;BME280;75461;51.556;9.946;2024-03-07T12:02:36;100516.84;;;9.57;57.76
85113;BME280;75461;51.556;9.946;2024-03-07T12:05:03;100516.56;;;10.08;55.89
85113;BME280;75461;51.556;9.946;2024-03-07T12:07:31;100509.66;;;9.91;51.89
85113;BME280;75461;51.556;9.946;2024-03-07T12:09:56;100505.78;;;10.13;55.73
85113;BME280;75461;51.556;9.946;2024-03-07T12:12:22;100505.53;;;9.87;52.76
85113;BME280;75461;51.556;9.946;2024-03-07T12:14:50;100506.13;;;9.46;55.39
85113;BME280;75461;51.556;9.946;2024-03-07T12:17:17;100507.69;;;9.03;53.96
85113;BME280;75461;51.556;9.946;2024-03-07T12:19:43;100506.31;;;8.80;54.56
85113;BME280;75461;51.556;9.946;2024-03-07T12:22:10;100502.06;;;8.77;55.75
85113;BME280;75461;51.556;9.946;2024-03-07T12:24:41;100507.53;;;8.57;55.72
85113;BME280;75461;51.556;9.946;2024-03-07T12:27:08;100498.72;;;8.75;62.08
85113;BME280;75461;51.556;9.946;2024-03-07T12:29:36;100486.13;;;9.14;56.04
85113;BME280;75461;51.556;9.946;2024-03-07T12:32:04;100482.31;;;9.51;59.28
85113;BME280;75461;51.556;9.946;2024-03-07T12:34:32;100485.53;;;10.00;57.11
85113;BME280;75461;51.556;9.946;2024-03-07T12:37:02;100480.69;;;10.53;52.75
85113;BME280;75461;51.556;9.946;2024-03-07T12:39:31;100473.13;;;10.90;57.17
85113;BME280;75461;51.556;9.946;2024-03-07T12:42:03;100474.81;;;11.05;49.68
85113;BME280;75461;51.556;9.946;2024-03-07T12:44:41;100473.75;;;11.08;51.91
85113;BME280;75461;51.556;9.946;2024-03-07T12:47:16;100470.72;;;11.14;48.13
85113;BME280;75461;51.556;9.946;2024-03-07T12:49:42;100464.91;;;11.23;50.48
85113;BME280;75461;51.556;9.946;2024-03-07T12:52:08;100469.63;;;11.18;52.89
85113;BME280;75461;51.556;9.946;2024-03-07T12:54:35;100466.53;;;11.11;53.23
85113;BME280;75461;51.556;9.946;2024-03-07T12:57:09;100473.13;;;10.90;52.62
85113;BME280;75461;51.556;9.946;2024-03-07T12:59:35;100471.19;;;10.36;53.35
85113;BME280;75461;51.556;9.946;2024-03-07T13:02:09;100470.88;;;10.12;48.04
85113;BME280;75461;51.556;9.946;2024-03-07T13:04:35;100469.84;;;9.70;54.00
85113;BME280;75461;51.556;9.946;2024-03-07T13:07:04;100468.00;;;9.72;52.41
85113;BME280;75461;51.556;9.946;2024-03-07T13:09:33;100469.06;;;9.38;55.02
85113;BME280;75461;51.556;9.946;2024-03-07T13:11:59;100467.97;;;9.42;54.25